Time;durP1;ratioP1;P1;durP2;ratioP2;P2;SDS_P1;SDS_P2;PMS_P1;PMS_P2;Temp;Humidity;BMP_temperature;BMP_pressure;BME280_temperature;BME280_humidity;BME280_pressure;Samples;Min_cycle;Max_cycle;Signal;HPM_P1;HPM_P2
2022/10/30 00:00:22;;;;;;;;;;;;;;;26.08;34.95;101453.50;4976757;28;2113;-41
2022/10/30 00:02:48;;;;;;;;;;;;;;;26.11;34.75;101448.63;4981558;28;1114;-41
2022/10/30 00:05:13;;;;;;;;;;;;;;;26.04;34.93;101450.28;4982560;28;1118;-41
2022/10/30 00:07:38;;;;;;;;;;;;;;;26.08;35.07;101448.09;4963487;28;1106;-43
2022/10/30 00:10:04;;;;;;;;;;;;;;;26.12;34.82;101444.09;4977008;28;1101;-41
2022/10/30 00:12:29;;;;;;;;;;;;;;;26.08;35.11;101445.41;4959626;28;1978;-41
2022/10/30 00:14:54;;;;;;;;;;;;;;;26.04;34.89;101442.22;4982538;28;1144;-41
2022/10/30 00:17:20;;;;;;;;;;;;;;;26.07;35.02;101443.72;4980962;28;1165;-42
2022/10/30 00:19:45;;;;;;;;;;;;;;;26.06;35.01;101437.47;4976588;28;1106;-40
2022/10/30 00:22:10;;;;;;;;;;;;;;;26.08;34.63;101434.63;4976702;28;1248;-42
2022/10/30 00:24:36;;;;;;;;;;;;;;;26.08;35.04;101430.09;4977081;28;1193;-42
2022/10/30 00:27:01;;;;;;;;;;;;;;;26.12;35.03;101433.31;4982582;28;1098;-41
2022/10/30 00:29:26;;;;;;;;;;;;;;;26.09;34.87;101430.94;4984147;28;1860;-40
2022/10/30 00:31:52;;;;;;;;;;;;;;;26.10;35.16;101429.94;4976427;28;1923;-41
2022/10/30 00:34:17;;;;;;;;;;;;;;;26.09;34.89;101428.25;4976775;28;1197;-41
2022/10/30 00:36:42;;;;;;;;;;;;;;;26.06;35.02;101425.88;4976318;28;1184;-41
2022/10/30 00:39:08;;;;;;;;;;;;;;;26.04;35.35;101424.16;4982527;28;1205;-42
2022/10/30 00:41:33;;;;;;;;;;;;;;;26.07;35.02;101423.00;4981262;28;1101;-43
2022/10/30 00:43:58;;;;;;;;;;;;;;;26.02;34.97;101419.94;4976371;28;1192;-41
2022/10/30 00:46:25;;;;;;;;;;;;;;;26.07;35.20;101414.94;4976837;28;1118;-41
2022/10/30 00:48:55;;;;;;;;;;;;;;;26.09;34.93;101417.47;4942948;28;1232;-41
2022/10/30 00:51:21;;;;;;;;;;;;;;;26.01;34.98;101418.25;4966276;28;1898;-40
2022/10/30 00:53:46;;;;;;;;;;;;;;;26.01;35.02;101412.84;4978619;28;1082;-40
2022/10/30 00:56:12;;;;;;;;;;;;;;;26.02;35.12;101411.88;4976683;28;1220;-40
2022/10/30 00:58:38;;;;;;;;;;;;;;;26.00;35.16;101417.41;4958754;28;2065;-40
2022/10/30 01:01:04;;;;;;;;;;;;;;;26.01;34.92;101410.16;4959308;28;1455;-39
2022/10/30 01:03:29;;;;;;;;;;;;;;;25.94;35.33;101401.03;4966214;28;1193;-39
2022/10/30 01:05:56;;;;;;;;;;;;;;;25.98;35.25;101399.69;4959378;28;1121;-39
2022/10/30 01:08:21;;;;;;;;;;;;;;;25.96;35.15;101399.84;4975864;28;1239;-38
2022/10/30 01:10:46;;;;;;;;;;;;;;;25.99;35.16;101391.44;4959160;28;1122;-41
2022/10/30 01:13:12;;;;;;;;;;;;;;;25.93;35.28;101389.38;4977452;28;1887;-41
2022/10/30 01:15:39;;;;;;;;;;;;;;;25.90;35.13;101390.56;4985843;28;1216;-42
2022/10/30 01:18:40;;;;;;;;;;;;;;;25.88;35.37;101389.03;4962746;28;1155;-41
2022/10/30 01:21:13;;;;;;;;;;;;;;;25.82;35.18;101384.28;4938787;29;1221;-41
2022/10/30 01:23:39;;;;;;;;;;;;;;;25.87;35.18;101390.88;4951378;28;1315;-42
2022/10/30 01:26:25;;;;;;;;;;;;;;;25.88;35.24;101384.47;4979813;28;1086;-42
2022/10/30 01:29:10;;;;;;;;;;;;;;;25.88;35.41;101379.09;4966056;28;2291;-41
2022/10/30 01:31:45;;;;;;;;;;;;;;;25.94;34.91;101382.16;4976760;28;1902;-41
2022/10/30 01:34:13;;;;;;;;;;;;;;;25.91;35.30;101388.69;4962702;28;1165;-43
2022/10/30 01:36:39;;;;;;;;;;;;;;;25.95;35.15;101387.38;4979445;28;1168;-41
2022/10/30 01:39:07;;;;;;;;;;;;;;;25.90;35.14;101377.09;4963935;28;1209;-41
2022/10/30 01:41:33;;;;;;;;;;;;;;;25.86;34.84;101377.56;4983792;28;1169;-43
2022/10/30 01:43:59;;;;;;;;;;;;;;;25.89;34.96;101380.78;4979347;28;1110;-40
2022/10/30 01:46:30;;;;;;;;;;;;;;;25.89;35.39;101377.25;4962079;28;1103;-41
2022/10/30 01:49:09;;;;;;;;;;;;;;;25.84;34.98;101372.31;4979232;28;1129;-43
2022/10/30 01:51:48;;;;;;;;;;;;;;;25.93;34.77;101375.91;4966939;28;1959;-41
2022/10/30 01:54:32;;;;;;;;;;;;;;;25.89;35.13;101370.00;4949910;28;1142;-41
2022/10/30 01:57:10;;;;;;;;;;;;;;;25.86;35.18;101369.50;4978613;28;1105;-41
2022/10/30 01:59:37;;;;;;;;;;;;;;;25.85;35.14;101374.03;4979203;28;2528;-41
2022/10/30 02:02:02;;;;;;;;;;;;;;;25.95;34.92;101367.66;4962029;28;1186;-41
2022/10/30 02:04:27;;;;;;;;;;;;;;;25.95;35.23;101373.06;4982476;28;955;-41
2022/10/30 02:06:53;;;;;;;;;;;;;;;25.94;35.18;101377.63;4961395;28;1232;-42
2022/10/30 02:09:18;;;;;;;;;;;;;;;25.93;34.95;101373.22;4961261;28;1189;-41
2022/10/30 02:11:44;;;;;;;;;;;;;;;25.94;34.80;101376.75;4978752;28;1890;-41
2022/10/30 02:14:09;;;;;;;;;;;;;;;25.90;35.21;101366.31;4961013;28;1138;-40
2022/10/30 02:16:36;;;;;;;;;;;;;;;25.88;35.25;101372.84;4981045;28;916;-41
2022/10/30 02:19:02;;;;;;;;;;;;;;;25.89;34.84;101371.88;4961404;28;1455;-41
2022/10/30 02:21:27;;;;;;;;;;;;;;;25.85;35.13;101367.78;4978557;28;1208;-42
2022/10/30 02:23:52;;;;;;;;;;;;;;;25.89;34.89;101374.56;4978200;28;1466;-41
2022/10/30 02:26:18;;;;;;;;;;;;;;;25.88;34.97;101372.84;4977868;28;1141;-41
2022/10/30 02:28:43;;;;;;;;;;;;;;;25.88;34.85;101370.16;4978725;28;1962;-40
2022/10/30 02:31:08;;;;;;;;;;;;;;;25.85;35.08;101360.53;4978576;28;1133;-40
2022/10/30 02:33:33;;;;;;;;;;;;;;;25.88;34.88;101371.00;4961423;28;1919;-38
2022/10/30 02:35:59;;;;;;;;;;;;;;;25.86;35.10;101364.09;4978289;28;1094;-39
2022/10/30 02:38:24;;;;;;;;;;;;;;;25.91;34.52;101365.28;4978649;28;1184;-39
2022/10/30 02:40:49;;;;;;;;;;;;;;;25.85;34.68;101357.00;4981610;28;906;-38
2022/10/30 02:43:14;;;;;;;;;;;;;;;25.87;34.88;101357.69;4977996;28;1129;-39
2022/10/30 02:45:40;;;;;;;;;;;;;;;25.83;35.10;101356.31;4978508;28;1105;-41
2022/10/30 02:48:06;;;;;;;;;;;;;;;25.82;34.79;101351.94;4978334;28;1193;-39
2022/10/30 02:50:31;;;;;;;;;;;;;;;25.81;35.11;101359.16;4978140;28;1413;-39
2022/10/30 02:52:57;;;;;;;;;;;;;;;25.87;35.07;101366.63;4979427;28;1911;-39
2022/10/30 02:55:22;;;;;;;;;;;;;;;25.86;34.91;101361.41;4978045;28;1138;-41
2022/10/30 02:57:48;;;;;;;;;;;;;;;25.87;34.84;101363.94;4978141;28;1121;-40
2022/10/30 03:00:13;;;;;;;;;;;;;;;25.86;34.88;101361.41;4977813;28;2556;-41
2022/10/30 03:02:38;;;;;;;;;;;;;;;25.84;35.01;101363.41;4978062;28;1106;-40
2022/10/30 03:05:04;;;;;;;;;;;;;;;25.82;34.73;101363.56;4977600;28;881;-40
2022/10/30 03:07:29;;;;;;;;;;;;;;;25.79;35.05;101359.31;4960219;28;1169;-40
2022/10/30 03:09:54;;;;;;;;;;;;;;;25.85;34.98;101362.38;4977797;28;1094;-39
2022/10/30 03:12:20;;;;;;;;;;;;;;;25.96;34.53;101362.13;4977427;28;1910;-39
2022/10/30 03:14:45;;;;;;;;;;;;;;;25.86;35.00;101362.22;4977790;28;1122;-40
2022/10/30 03:17:11;;;;;;;;;;;;;;;25.85;35.21;101367.78;4989555;28;1137;-40
2022/10/30 03:19:36;;;;;;;;;;;;;;;25.91;34.58;101370.69;4977710;28;1142;-38
2022/10/30 03:22:01;;;;;;;;;;;;;;;25.92;34.55;101361.59;4977286;28;1205;-38
2022/10/30 03:24:27;;;;;;;;;;;;;;;25.92;34.82;101363.44;4977300;28;1149;-41
2022/10/30 03:26:52;;;;;;;;;;;;;;;25.86;34.98;101359.53;4977871;28;1204;-40
2022/10/30 03:29:17;;;;;;;;;;;;;;;25.97;34.50;101361.13;4982853;28;2418;-39
2022/10/30 03:31:42;;;;;;;;;;;;;;;25.86;34.88;101356.84;4977417;28;1910;-40
2022/10/30 03:34:08;;;;;;;;;;;;;;;25.95;34.79;101348.78;4977861;28;1176;-41
2022/10/30 03:36:33;;;;;;;;;;;;;;;26.05;34.52;101354.91;4977017;28;1137;-40
2022/10/30 03:38:58;;;;;;;;;;;;;;;26.03;34.51;101356.94;4977388;28;1180;-40
2022/10/30 03:41:24;;;;;;;;;;;;;;;26.07;34.64;101355.63;4989847;28;1118;-41
2022/10/30 03:43:49;;;;;;;;;;;;;;;26.14;34.27;101353.13;4976995;28;1216;-40
2022/10/30 03:46:14;;;;;;;;;;;;;;;26.03;34.42;101351.53;4977539;28;1153;-41
2022/10/30 03:48:40;;;;;;;;;;;;;;;26.00;34.56;101354.56;4977095;28;1220;-42
2022/10/30 03:51:05;;;;;;;;;;;;;;;26.06;34.56;101350.38;4977316;28;1102;-40
2022/10/30 03:53:30;;;;;;;;;;;;;;;26.06;34.47;101343.13;4988566;28;1902;-41
2022/10/30 03:55:56;;;;;;;;;;;;;;;26.06;34.57;101342.28;4976798;28;1102;-39
2022/10/30 03:58:21;;;;;;;;;;;;;;;25.89;35.06;101336.81;4976906;28;1169;-39
2022/10/30 04:00:47;;;;;;;;;;;;;;;25.98;34.78;101337.69;4976750;28;2556;-40
2022/10/30 04:03:12;;;;;;;;;;;;;;;26.07;34.29;101331.34;4977106;28;1192;-40
2022/10/30 04:05:37;;;;;;;;;;;;;;;26.03;34.77;101329.97;4989353;28;1126;-40
2022/10/30 04:08:04;;;;;;;;;;;;;;;26.03;34.75;101328.13;4976836;28;1137;-39
2022/10/30 04:10:29;;;;;;;;;;;;;;;25.99;34.71;101334.84;4977041;28;1188;-38
2022/10/30 04:13:01;;;;;;;;;;;;;;;26.03;34.54;101329.97;4959305;28;1907;-39
2022/10/30 04:15:26;;;;;;;;;;;;;;;26.09;34.62;101328.50;4977143;28;1193;-39
2022/10/30 04:17:51;;;;;;;;;;;;;;;26.07;34.58;101335.88;4989127;28;1126;-40
2022/10/30 04:20:17;;;;;;;;;;;;;;;26.12;34.45;101328.16;4976795;28;1126;-39
2022/10/30 04:22:42;;;;;;;;;;;;;;;26.02;34.86;101337.22;4976606;28;1240;-40
2022/10/30 04:25:08;;;;;;;;;;;;;;;26.09;34.46;101336.56;4976587;28;1185;-40
2022/10/30 04:27:38;;;;;;;;;;;;;;;26.10;34.70;101338.25;4976884;28;1297;-40
2022/10/30 04:30:03;;;;;;;;;;;;;;;26.07;34.75;101333.19;4978754;28;2483;-39
2022/10/30 04:32:29;;;;;;;;;;;;;;;26.11;34.39;101331.88;4976473;28;1980;-39
2022/10/30 04:34:54;;;;;;;;;;;;;;;26.12;34.63;101333.56;4976739;28;1110;-41
2022/10/30 04:37:19;;;;;;;;;;;;;;;26.16;34.20;101327.66;4976611;28;1203;-39
2022/10/30 04:39:47;;;;;;;;;;;;;;;26.14;34.55;101336.94;4976888;28;1098;-39
2022/10/30 04:42:12;;;;;;;;;;;;;;;26.13;34.24;101336.09;4968963;28;912;-39
2022/10/30 04:44:38;;;;;;;;;;;;;;;25.97;32.53;101336.00;4976375;28;1177;-42
2022/10/30 04:47:03;;;;;;;;;;;;;;;24.92;30.54;101336.56;4976549;28;1185;-39
2022/10/30 04:49:28;;;;;;;;;;;;;;;24.36;30.72;101327.75;4979841;28;1177;-39
2022/10/30 04:51:54;;;;;;;;;;;;;;;23.93;31.71;101329.03;4979943;28;1969;-39
2022/10/30 04:54:20;;;;;;;;;;;;;;;23.87;31.24;101337.69;4987941;28;1018;-39
2022/10/30 04:56:46;;;;;;;;;;;;;;;24.00;32.15;101337.34;4979721;28;1089;-38
2022/10/30 04:59:11;;;;;;;;;;;;;;;24.51;32.00;101338.81;4979736;28;2214;-40
2022/10/30 05:01:36;;;;;;;;;;;;;;;24.90;31.26;101335.03;4980202;28;1149;-42
2022/10/30 05:04:02;;;;;;;;;;;;;;;24.81;31.10;101334.09;4979970;28;1160;-41
2022/10/30 05:06:29;;;;;;;;;;;;;;;24.84;30.86;101336.47;4986115;28;893;-41
2022/10/30 05:08:55;;;;;;;;;;;;;;;25.19;31.49;101337.50;4946547;28;1208;-43
2022/10/30 05:11:20;;;;;;;;;;;;;;;25.29;31.44;101341.97;4979893;28;1890;-42
2022/10/30 05:13:45;;;;;;;;;;;;;;;25.39;31.56;101337.31;4979897;28;1188;-41
2022/10/30 05:16:10;;;;;;;;;;;;;;;25.43;31.63;101335.16;4979649;28;1138;-41
2022/10/30 05:18:36;;;;;;;;;;;;;;;25.48;31.74;101334.66;4984202;28;901;-42
2022/10/30 05:21:01;;;;;;;;;;;;;;;25.53;31.95;101330.50;4979491;28;1141;-41
2022/10/30 05:23:26;;;;;;;;;;;;;;;25.52;31.99;101331.53;4979656;28;1315;-41
2022/10/30 05:25:52;;;;;;;;;;;;;;;25.52;32.29;101338.75;4979317;28;1184;-41
2022/10/30 05:28:17;;;;;;;;;;;;;;;25.50;32.61;101338.06;4979745;28;1030;-41
2022/10/30 05:30:42;;;;;;;;;;;;;;;25.46;32.76;101342.91;4982686;28;2676;-42
2022/10/30 05:33:08;;;;;;;;;;;;;;;25.46;32.96;101339.38;4979480;28;1918;-43
2022/10/30 05:35:34;;;;;;;;;;;;;;;25.45;32.80;101335.84;4979608;28;1129;-42
2022/10/30 05:37:59;;;;;;;;;;;;;;;25.47;32.86;101350.00;4979594;28;1094;-44
2022/10/30 05:40:25;;;;;;;;;;;;;;;25.51;33.24;101337.91;4979361;28;1225;-42
2022/10/30 05:42:50;;;;;;;;;;;;;;;25.51;33.00;101337.03;4984859;28;896;-42
2022/10/30 05:45:15;;;;;;;;;;;;;;;25.51;33.04;101335.22;4979333;28;1094;-42
2022/10/30 05:47:41;;;;;;;;;;;;;;;25.53;33.13;101340.44;4979045;28;1133;-41
2022/10/30 05:50:06;;;;;;;;;;;;;;;25.55;32.88;101335.75;4990445;28;1189;-43
2022/10/30 05:52:32;;;;;;;;;;;;;;;25.62;32.62;101335.97;4979099;28;1898;-41
2022/10/30 05:54:57;;;;;;;;;;;;;;;25.65;32.26;101338.34;4982872;28;985;-42
2022/10/30 05:57:22;;;;;;;;;;;;;;;25.66;32.36;101348.13;4979222;28;1074;-41
2022/10/30 05:59:47;;;;;;;;;;;;;;;25.70;32.65;101337.88;4978952;28;2506;-42
2022/10/30 06:02:13;;;;;;;;;;;;;;;25.68;32.51;101333.50;4978682;28;1106;-41
2022/10/30 06:04:38;;;;;;;;;;;;;;;25.71;32.48;101331.50;4979092;28;1193;-41
2022/10/30 06:07:03;;;;;;;;;;;;;;;25.71;32.36;101336.88;4977315;28;1378;-41
2022/10/30 06:09:28;;;;;;;;;;;;;;;25.75;32.71;101338.25;4978669;28;1082;-41
2022/10/30 06:11:54;;;;;;;;;;;;;;;25.77;32.16;101345.19;4972479;28;1976;-39
2022/10/30 06:14:19;;;;;;;;;;;;;;;25.71;32.22;101342.28;4977452;28;1229;-39
2022/10/30 06:16:45;;;;;;;;;;;;;;;26.03;31.95;101340.75;4964235;28;2142;-40
2022/10/30 06:19:10;;;;;;;;;;;;;;;26.21;32.05;101343.34;4996194;28;858;-41
2022/10/30 06:21:35;;;;;;;;;;;;;;;26.01;32.01;101342.75;4998609;28;776;-39
2022/10/30 06:24:00;;;;;;;;;;;;;;;25.78;32.35;101336.09;4998761;28;1296;-39
2022/10/30 06:26:26;;;;;;;;;;;;;;;25.73;32.70;101343.78;4998520;28;1038;-40
2022/10/30 06:28:51;;;;;;;;;;;;;;;25.73;31.99;101343.78;4998287;28;797;-40
2022/10/30 06:31:16;;;;;;;;;;;;;;;25.72;31.99;101347.50;4980809;28;951;-40
2022/10/30 06:33:42;;;;;;;;;;;;;;;25.72;32.10;101347.50;4978665;28;1906;-41
2022/10/30 06:36:07;;;;;;;;;;;;;;;25.73;31.91;101341.09;4979032;28;972;-38
2022/10/30 06:38:32;;;;;;;;;;;;;;;25.77;32.00;101338.94;4978289;28;928;-41
2022/10/30 06:40:58;;;;;;;;;;;;;;;25.74;31.85;101342.78;4979132;28;825;-41
2022/10/30 06:43:23;;;;;;;;;;;;;;;25.74;31.93;101344.66;4996297;28;863;-40
2022/10/30 06:45:48;;;;;;;;;;;;;;;25.73;31.82;101348.34;4998310;28;797;-40
2022/10/30 06:48:14;;;;;;;;;;;;;;;25.73;31.93;101346.50;4997424;28;888;-40
2022/10/30 06:50:39;;;;;;;;;;;;;;;25.73;31.94;101346.50;4998245;28;900;-40
2022/10/30 06:53:04;;;;;;;;;;;;;;;25.82;32.20;101341.16;4997588;28;1914;-40
2022/10/30 06:55:30;;;;;;;;;;;;;;;25.82;33.46;101346.53;4979953;28;866;-39
2022/10/30 06:57:55;;;;;;;;;;;;;;;25.92;33.16;101345.41;4978021;28;830;-39
2022/10/30 07:00:20;;;;;;;;;;;;;;;25.92;33.26;101340.00;4978237;28;735;-39
2022/10/30 07:02:58;;;;;;;;;;;;;;;25.98;33.28;101343.06;4978264;28;894;-39
2022/10/30 07:05:23;;;;;;;;;;;;;;;25.96;33.04;101337.03;4978507;28;847;-38
2022/10/30 07:07:48;;;;;;;;;;;;;;;25.96;33.36;101334.34;4997304;28;830;-38
2022/10/30 07:10:14;;;;;;;;;;;;;;;26.11;32.99;101332.69;4997112;28;858;-37
2022/10/30 07:12:39;;;;;;;;;;;;;;;26.15;33.06;101330.53;4997455;28;1960;-38
2022/10/30 07:15:05;;;;;;;;;;;;;;;26.20;32.94;101328.19;4997355;28;830;-38
2022/10/30 07:17:30;;;;;;;;;;;;;;;26.14;33.11;101326.97;4996756;28;847;-39
2022/10/30 07:19:55;;;;;;;;;;;;;;;26.14;33.18;101326.16;4977739;28;1003;-38
2022/10/30 07:22:20;;;;;;;;;;;;;;;26.25;32.82;101322.31;4978053;28;1132;-39
2022/10/30 07:24:46;;;;;;;;;;;;;;;26.23;32.94;101324.31;4977862;28;747;-38
2022/10/30 07:27:11;;;;;;;;;;;;;;;26.17;33.04;101323.94;4977901;28;894;-38
2022/10/30 07:29:36;;;;;;;;;;;;;;;26.25;33.11;101323.16;4978207;28;905;-39
2022/10/30 07:32:02;;;;;;;;;;;;;;;26.32;32.72;101317.09;4997031;28;1965;-38
2022/10/30 07:34:27;;;;;;;;;;;;;;;26.33;32.86;101311.56;4997271;28;890;-38
2022/10/30 07:36:52;;;;;;;;;;;;;;;26.34;32.75;101313.25;4997262;28;815;-38
2022/10/30 07:39:17;;;;;;;;;;;;;;;26.41;32.47;101308.91;4997126;28;898;-38
2022/10/30 07:41:43;;;;;;;;;;;;;;;26.48;32.66;101302.84;4995531;28;857;-38
2022/10/30 07:44:08;;;;;;;;;;;;;;;26.49;32.45;101299.97;4977636;28;812;-38
2022/10/30 07:46:33;;;;;;;;;;;;;;;26.39;32.73;101296.59;4977596;28;766;-38
2022/10/30 07:48:58;;;;;;;;;;;;;;;26.50;32.54;101293.59;4977637;28;889;-38
2022/10/30 07:51:24;;;;;;;;;;;;;;;26.39;32.72;101285.81;4977646;28;775;-38
2022/10/30 07:53:49;;;;;;;;;;;;;;;26.46;32.52;101286.00;4977987;28;1903;-38
2022/10/30 07:56:14;;;;;;;;;;;;;;;26.33;32.86;101279.22;4997013;28;821;-37
2022/10/30 07:58:40;;;;;;;;;;;;;;;26.11;33.05;101284.16;4996987;28;964;-38
2022/10/30 08:01:05;;;;;;;;;;;;;;;26.04;33.33;101273.19;4996553;28;810;-36
2022/10/30 08:03:30;;;;;;;;;;;;;;;26.00;33.71;101276.38;4997256;28;729;-36
2022/10/30 08:05:56;;;;;;;;;;;;;;;26.21;33.44;101261.63;4989549;28;2183;-39
2022/10/30 08:08:22;;;;;;;;;;;;;;;26.45;33.10;101252.78;4996627;28;2097;-40
2022/10/30 08:10:47;;;;;;;;;;;;;;;26.33;33.10;101249.53;4984007;28;2235;-40
2022/10/30 08:13:13;;;;;;;;;;;;;;;26.32;32.86;101247.84;4983965;28;2118;-40
2022/10/30 08:15:39;;;;;;;;;;;;;;;26.35;32.86;101247.53;4987366;28;2086;-40
2022/10/30 08:18:04;;;;;;;;;;;;;;;26.37;33.02;101247.38;4972261;28;2110;-40
2022/10/30 08:20:29;;;;;;;;;;;;;;;26.40;32.79;101239.78;4996059;28;2218;-37
2022/10/30 08:22:55;;;;;;;;;;;;;;;26.45;32.63;101244.69;4978359;28;2317;-39
2022/10/30 08:25:21;;;;;;;;;;;;;;;26.47;32.67;101242.66;4980703;28;799;-40
2022/10/30 08:28:05;;;;;;;;;;;;;;;26.46;33.05;101246.34;4980640;28;1011;-39
2022/10/30 08:30:33;;;;;;;;;;;;;;;26.44;32.71;101240.31;4984555;28;866;-39
2022/10/30 08:32:58;;;;;;;;;;;;;;;26.39;33.03;101239.97;5000332;28;1969;-39
2022/10/30 08:35:24;;;;;;;;;;;;;;;26.40;33.17;101242.47;5000105;28;747;-39
2022/10/30 08:37:51;;;;;;;;;;;;;;;26.40;32.77;101239.78;4999806;28;893;-38
2022/10/30 08:40:16;;;;;;;;;;;;;;;26.40;33.15;101241.63;5000149;28;810;-38
2022/10/30 08:42:41;;;;;;;;;;;;;;;26.44;32.71;101234.06;4994809;28;917;-38
2022/10/30 08:45:07;;;;;;;;;;;;;;;26.40;33.15;101237.09;4980302;28;946;-38
2022/10/30 08:47:32;;;;;;;;;;;;;;;26.37;33.19;101228.47;4962891;28;743;-39
2022/10/30 08:49:57;;;;;;;;;;;;;;;26.46;33.13;101229.34;4980581;28;827;-39
2022/10/30 08:52:23;;;;;;;;;;;;;;;26.44;32.80;101229.50;4980221;28;2604;-38
2022/10/30 08:54:48;;;;;;;;;;;;;;;26.41;33.02;101227.97;4967973;28;847;-39
2022/10/30 08:57:13;;;;;;;;;;;;;;;26.45;33.25;101217.69;4999709;28;923;-39
2022/10/30 08:59:39;;;;;;;;;;;;;;;26.44;33.00;101218.72;5000164;28;914;-39
2022/10/30 09:02:06;;;;;;;;;;;;;;;26.45;32.91;101217.69;4999924;28;769;-39
2022/10/30 09:04:32;;;;;;;;;;;;;;;26.50;33.33;101211.78;4999381;28;853;-39
2022/10/30 09:06:59;;;;;;;;;;;;;;;26.49;32.92;101205.56;4987272;28;1083;-38
2022/10/30 09:09:24;;;;;;;;;;;;;;;26.51;33.05;101198.13;4999248;28;830;-39
2022/10/30 09:11:49;;;;;;;;;;;;;;;26.61;32.77;101205.25;4999057;28;1906;-39
2022/10/30 09:14:14;;;;;;;;;;;;;;;26.60;32.94;101206.25;4998962;28;782;-39
2022/10/30 09:16:40;;;;;;;;;;;;;;;26.59;32.80;101199.97;4998984;28;874;-39
2022/10/30 09:19:05;;;;;;;;;;;;;;;26.65;33.00;101201.19;4980572;28;1232;-39
2022/10/30 09:21:30;;;;;;;;;;;;;;;26.67;33.07;101184.81;4979188;28;2352;-39
2022/10/30 09:23:55;;;;;;;;;;;;;;;26.67;32.86;101179.41;4978999;28;1430;-39
2022/10/30 09:26:21;;;;;;;;;;;;;;;26.64;32.57;101175.22;4979392;28;1484;-40
2022/10/30 09:28:46;;;;;;;;;;;;;;;26.63;32.94;101176.22;4979678;28;1325;-39
2022/10/30 09:31:12;;;;;;;;;;;;;;;26.69;32.85;101172.88;4985288;28;977;-39
2022/10/30 09:33:37;;;;;;;;;;;;;;;26.74;32.77;101169.66;4998378;28;1914;-39
2022/10/30 09:36:02;;;;;;;;;;;;;;;26.73;32.60;101167.94;4998785;28;866;-39
2022/10/30 09:38:28;;;;;;;;;;;;;;;26.71;33.12;101167.28;4980660;28;1149;-40
2022/10/30 09:40:59;;;;;;;;;;;;;;;26.67;32.84;101158.69;4979610;28;909;-39
2022/10/30 09:43:34;;;;;;;;;;;;;;;26.65;33.02;101150.75;4985969;28;1000;-39
2022/10/30 09:46:18;;;;;;;;;;;;;;;26.60;32.71;101144.19;4998827;28;926;-39
2022/10/30 09:49:13;;;;;;;;;;;;;;;26.62;33.00;101136.75;4998469;28;767;-39
2022/10/30 09:51:44;;;;;;;;;;;;;;;26.59;32.81;101134.41;4953702;28;2673;-39
2022/10/30 09:54:14;;;;;;;;;;;;;;;26.56;32.71;101124.78;4979398;28;985;-39
2022/10/30 09:56:43;;;;;;;;;;;;;;;26.60;32.69;101122.59;4994965;28;949;-38
2022/10/30 09:59:27;;;;;;;;;;;;;;;26.59;32.58;101110.13;4980916;28;827;-40
2022/10/30 10:01:54;;;;;;;;;;;;;;;26.61;32.79;101113.50;4997947;28;794;-39
2022/10/30 10:04:27;;;;;;;;;;;;;;;26.65;32.86;101107.59;4981105;28;775;-39
2022/10/30 10:06:57;;;;;;;;;;;;;;;26.70;32.72;101108.91;4980102;28;862;-38
2022/10/30 10:09:23;;;;;;;;;;;;;;;26.65;32.56;101106.75;4979010;28;879;-38
2022/10/30 10:11:53;;;;;;;;;;;;;;;26.67;32.86;101109.25;4978773;28;1902;-39
2022/10/30 10:14:38;;;;;;;;;;;;;;;26.67;32.57;101110.13;4978803;28;1166;-39
2022/10/30 10:17:04;;;;;;;;;;;;;;;26.63;32.78;101098.81;4978606;28;835;-39
2022/10/30 10:19:40;;;;;;;;;;;;;;;26.60;32.67;101096.47;4984159;28;902;-38
2022/10/30 10:22:31;;;;;;;;;;;;;;;26.67;32.43;101099.31;4986131;28;2597;-39
2022/10/30 10:24:56;;;;;;;;;;;;;;;26.66;32.78;101094.91;4976602;28;1622;-38
2022/10/30 10:27:22;;;;;;;;;;;;;;;26.71;32.31;101091.72;4961085;28;768;-39
2022/10/30 10:30:02;;;;;;;;;;;;;;;26.72;32.37;101088.00;4978679;28;1146;-39
2022/10/30 10:32:40;;;;;;;;;;;;;;;27.39;31.27;101085.94;4978515;28;1963;-39
2022/10/30 10:35:15;;;;;;;;;;;;;;;27.74;31.17;101072.09;4978566;28;827;-42
2022/10/30 10:37:58;;;;;;;;;;;;;;;27.97;30.47;101079.34;4978381;28;804;-40
2022/10/30 10:40:33;;;;;;;;;;;;;;;27.43;31.12;101081.00;4978195;28;1388;-40
2022/10/30 10:43:01;;;;;;;;;;;;;;;27.14;31.56;101076.09;4978124;28;974;-39
2022/10/30 10:45:38;;;;;;;;;;;;;;;27.05;31.86;101071.75;4977301;28;1011;-39
2022/10/30 10:48:24;;;;;;;;;;;;;;;27.00;32.01;101071.38;4978644;28;776;-39
2022/10/30 10:51:07;;;;;;;;;;;;;;;26.94;32.18;101069.41;4957341;28;2589;-39
2022/10/30 10:53:45;;;;;;;;;;;;;;;27.17;31.66;101061.41;4977297;28;1902;-39
2022/10/30 10:56:10;;;;;;;;;;;;;;;27.46;31.26;101059.06;4979387;28;1146;-39
2022/10/30 10:58:43;;;;;;;;;;;;;;;27.62;30.51;101056.25;4960648;28;1206;-38
2022/10/30 11:01:11;;;;;;;;;;;;;;;27.66;30.47;101055.91;4976696;28;1269;-38
2022/10/30 11:03:56;;;;;;;;;;;;;;;27.75;30.51;101050.28;4972035;28;1166;-39
2022/10/30 11:06:32;;;;;;;;;;;;;;;27.91;30.66;101042.22;4996676;28;1107;-39
2022/10/30 11:09:01;;;;;;;;;;;;;;;27.85;30.30;101041.09;4983065;28;826;-38
2022/10/30 11:11:26;;;;;;;;;;;;;;;27.94;30.50;101029.19;4977952;28;1030;-39
2022/10/30 11:13:52;;;;;;;;;;;;;;;27.93;30.17;101026.66;4977375;28;1902;-39
2022/10/30 11:16:21;;;;;;;;;;;;;;;27.99;30.32;101031.34;4959232;28;1128;-39
2022/10/30 11:18:46;;;;;;;;;;;;;;;27.93;30.57;101026.66;4972281;28;1093;-39
2022/10/30 11:21:12;;;;;;;;;;;;;;;27.95;30.20;101021.91;4970900;28;2524;-40
2022/10/30 11:23:37;;;;;;;;;;;;;;;27.95;30.32;101022.75;4983648;28;1110;-39
2022/10/30 11:26:03;;;;;;;;;;;;;;;27.99;29.91;101017.81;4997084;28;818;-39
2022/10/30 11:28:55;;;;;;;;;;;;;;;27.92;30.09;101012.31;4996950;28;831;-39
2022/10/30 11:31:39;;;;;;;;;;;;;;;27.96;30.15;101010.09;4939584;29;1462;-39
2022/10/30 11:34:16;;;;;;;;;;;;;;;27.93;30.30;101008.56;4958283;28;770;-39
2022/10/30 11:36:41;;;;;;;;;;;;;;;27.93;30.01;100996.91;4958366;29;890;-39
2022/10/30 11:39:10;;;;;;;;;;;;;;;27.93;30.13;101002.31;4963975;28;1130;-39
2022/10/30 11:41:36;;;;;;;;;;;;;;;27.97;30.14;100993.69;4976502;28;848;-39
2022/10/30 11:44:01;;;;;;;;;;;;;;;27.95;30.39;100992.16;4977010;28;1117;-39
2022/10/30 11:46:26;;;;;;;;;;;;;;;28.02;30.31;100986.88;4959665;28;820;-39
2022/10/30 11:48:53;;;;;;;;;;;;;;;27.97;29.87;100988.28;4959552;28;839;-40
2022/10/30 11:51:28;;;;;;;;;;;;;;;27.97;30.05;100982.88;4960181;28;2498;-39
2022/10/30 11:53:54;;;;;;;;;;;;;;;27.94;30.35;100983.22;4960085;28;1968;-40
2022/10/30 11:56:19;;;;;;;;;;;;;;;27.94;30.29;100985.09;4965677;28;921;-37
2022/10/30 11:58:46;;;;;;;;;;;;;;;27.91;30.33;100980.06;4996027;28;806;-39
2022/10/30 12:01:23;;;;;;;;;;;;;;;27.96;30.16;100980.34;4979232;28;851;-39
2022/10/30 12:03:49;;;;;;;;;;;;;;;28.02;30.24;100978.75;4996319;28;898;-39
2022/10/30 12:06:26;;;;;;;;;;;;;;;28.07;30.35;100976.34;4996821;28;889;-39
2022/10/30 12:09:12;;;;;;;;;;;;;;;28.05;30.33;100976.53;4995961;28;862;-39
2022/10/30 12:11:38;;;;;;;;;;;;;;;28.00;30.23;100973.53;4989033;28;1891;-39
2022/10/30 12:14:03;;;;;;;;;;;;;;;28.04;30.18;100966.75;4979446;28;842;-39
2022/10/30 12:16:28;;;;;;;;;;;;;;;28.10;30.19;100971.41;4995678;28;1141;-39
2022/10/30 12:19:00;;;;;;;;;;;;;;;28.04;30.15;100966.75;4996195;28;754;-39
2022/10/30 12:21:25;;;;;;;;;;;;;;;28.06;30.30;100970.09;4982333;28;1915;-39
2022/10/30 12:23:53;;;;;;;;;;;;;;;28.07;30.22;100955.56;4976952;28;1482;-39
2022/10/30 12:26:18;;;;;;;;;;;;;;;27.94;30.40;100949.94;4977109;28;797;-39
2022/10/30 12:28:49;;;;;;;;;;;;;;;27.98;30.21;100959.34;4959558;28;838;-39
2022/10/30 12:31:16;;;;;;;;;;;;;;;28.03;30.34;100969.63;4959676;28;843;-38
2022/10/30 12:33:57;;;;;;;;;;;;;;;28.06;30.22;100961.97;4974001;28;1918;-41
2022/10/30 12:36:23;;;;;;;;;;;;;;;28.04;30.39;100964.03;4996081;28;831;-41
2022/10/30 12:38:49;;;;;;;;;;;;;;;28.06;30.44;100967.38;4995403;28;960;-41
2022/10/30 12:41:24;;;;;;;;;;;;;;;28.00;30.28;100960.00;4961868;28;922;-41
2022/10/30 12:43:56;;;;;;;;;;;;;;;28.05;30.58;100962.16;4976513;28;831;-40
2022/10/30 12:46:35;;;;;;;;;;;;;;;28.06;30.28;100958.44;4995754;28;851;-40
2022/10/30 12:49:10;;;;;;;;;;;;;;;28.07;30.38;100957.41;4978870;28;807;-41
2022/10/30 12:51:40;;;;;;;;;;;;;;;28.13;30.28;100959.38;4987802;28;2616;-39